Aalborg, Denmark

6:04 AM CEST on September 21, 2014 (GMT +0200)
Aalborg | Change Station
CLOSE
Current Station
Airport
Location: Aalborg,
Elevation: 10 ft
Nearby Weather Stations

Elev 10 ft 57.10 °N, 9.85 °E | Updated 14 minutes ago

Rain
Rain
59 °F
Feels Like 59 °F
N
8
Wind Variable Wind from West

Today
High -- | Low -- °F
--% Chance of Precip.
Yesterday
High -- | Low -- °F
Precip. -- in
7:03 AM 7:23 PM
Waning Crescent, 9% visible
Pressure 29.80 in
Visibility 6.2 miles
Clouds Few 1200 ft
Scattered Clouds 3000 ft
Mostly Cloudy 7000 ft
Dew Point 57 °F
Humidity 94%
Rainfall 0.00 in
Snow Depth Not available.
UV 0 out of 12
Pollen Not available.
Air Quality Not available.
Flu Activity Not available.
METAR EKYT 210350Z 26007KT 9999 RA FEW012 SCT030 BKN070 15/14 Q1009

More Conditions Fewer Conditions

Pressure 29.80 in
Visibility 6.2 miles
Clouds Few 1200 ft
Scattered Clouds 3000 ft
Mostly Cloudy 7000 ft
Dew Point 57 °F
Humidity 94%
Rainfall 0.00 in
Snow Depth Not available.
UV 0 out of 12
Pollen Not available.
Air Quality Not available.
Flu Activity Not available.
METAR EKYT 210350Z 26007KT 9999 RA FEW012 SCT030 BKN070 15/14 Q1009

More Conditions Fewer Conditions

10-Day Weather Forecast

Almanac

Astronomy

Sep. 21, 2014 Rise Set
Actual Time 7:03 AM CEST 7:23 PM CEST
Civil Twilight 6:24 AM CEST 8:01 PM CEST
Nautical Twilight 5:38 AM CEST 8:47 PM CEST
Astronomical Twilight 4:49 AM CEST 9:36 PM CEST
Moon 3:56 AM CEST 6:09 PM CEST
Length of Visible Light 13h 36m
Length of Day
12h 19m
Tomorrow will be 4m 49s shorter.
Waning Crescent, 9% of the Moon is Illuminated
Today
Waning Crescent
Sep 24
New
Oct 1
First Quarter
Oct 8
Full
Oct 15
Last Quarter

Yesterday's Extremes

Country Highs Country Lows

Community

WunderPhotos

Upload Photos

1,755,084 photos uploaded!

Nearby

Snow Depth

Not available.

Earthquake Activity

City Distance Mag. Time & Date
No recent earthquake activity has been reported nearby.
Minimum magnitude displayed is 2.5.

Coastal Water Temperatures

Place Temperature
No Stations Reporting

Nearby Weather Stations